Latest Weather Observations for Mount Hotham

IDV60801

Issued at 10:02 pm EST Friday 29 April 2016 (issued every 30 minutes, with the page automatically refreshed every 10 minutes)

About weather observations | Map of weather stations | Latest weather observations for VIC | Other Formats
Station Details ID: 083085 Name: MOUNT HOTHAM Lat: -36.98 Lon: 147.13 Height: 1849.0 m
Data from the previous 72 hours. | See also: Recent months at Mount Hotham
Date/Time
EST
Temp
°C
App
Temp
°C
Dew
Point
Rel
Hum
%
Delta-T
°C
Wind Press
QNH
hPa
Press
MSL
hPa
Rain
since 9 am
mm
Dir
 
Spd
km/h
Gust
km/h
Spd
kts
Gust
kts
29/10:00pm 7.7 -1.0 7.6 99 0.1 NNW 43 57 23 31 - - 41.4
29/09:30pm 7.7 -2.0 7.6 99 0.1 NNW 48 69 26 37 - - 40.6
29/09:00pm 7.6 -2.5 7.5 99 0.1 NNW 50 70 27 38 - - 40.0
29/08:30pm 7.4 -3.9 7.3 99 0.1 NNW 56 83 30 45 - - 38.6
29/08:01pm 7.6 -4.9 7.5 99 0.1 NNW 63 83 34 45 - - 36.4
29/08:00pm 7.6 -4.9 7.5 99 0.1 NNW 63 80 34 43 - - 36.4
29/07:30pm 7.6 -4.2 7.5 99 0.1 NNW 59 83 32 45 - - 35.2
29/07:00pm 7.7 -4.4 7.6 99 0.1 N 61 83 33 45 - - 34.0
29/06:30pm 7.6 -6.1 7.5 99 0.1 NNW 69 89 37 48 - - 33.0
29/06:00pm 7.6 -4.9 7.5 99 0.1 NNW 63 91 34 49 - - 31.8
29/05:30pm 7.4 -5.6 7.3 99 0.1 NNW 65 85 35 46 - - 30.8
29/05:00pm 7.1 -5.9 7.0 99 0.1 N 65 95 35 51 - - 30.4
29/04:30pm 7.0 -6.1 6.9 99 0.1 NNW 65 83 35 45 - - 28.8
29/04:00pm 7.1 -5.6 7.0 99 0.1 NNW 63 87 34 47 - - 26.4
29/03:30pm 7.4 -3.9 7.3 99 0.1 NNW 56 89 30 48 - - 22.4
29/03:26pm 7.4 -4.1 7.3 99 0.1 NNW 57 89 31 48 - - 22.2
29/03:00pm 7.6 -2.1 7.5 99 0.1 NNW 48 69 26 37 - - 17.8
29/02:30pm 7.6 -4.2 7.5 99 0.1 NNW 59 78 32 42 - - 11.8
29/02:00pm 7.3 -4.9 7.2 99 0.1 NNW 61 80 33 43 - - 9.6
29/01:30pm 7.4 -3.5 7.3 99 0.1 NNW 54 82 29 44 - - 7.6
29/01:05pm 7.6 -2.5 7.5 99 0.1 NNW 50 76 27 41 - - 4.8
29/01:00pm 7.7 -3.1 7.6 99 0.1 N 54 70 29 38 - - 3.8
29/12:34pm 8.0 -2.7 7.9 99 0.1 N 54 80 29 43 - - 2.8
29/12:30pm 8.0 -2.4 7.9 99 0.1 N 52 65 28 35 - - 2.8
29/12:08pm 8.0 -3.3 7.9 99 0.1 N 57 78 31 42 - - 2.8
29/12:00pm 7.9 -2.9 7.8 99 0.1 N 54 69 29 37 - - 2.8
29/11:30am 7.6 -1.3 7.5 99 0.1 N 44 54 24 29 - - 2.8
29/11:13am 7.6 -1.7 7.5 99 0.1 N 46 67 25 36 - - 2.8
29/11:00am 7.6 -1.3 7.5 99 0.1 N 44 57 24 31 - - 2.8
29/10:30am 7.4 -1.4 7.3 99 0.1 NNW 43 61 23 33 - - 2.6
29/10:29am 7.3 -1.5 7.2 99 0.1 NNW 43 61 23 33 - - 2.6
29/10:00am 8.0 -0.8 7.2 95 0.4 N 43 54 23 29 - - 0.0
29/09:51am 8.0 -0.1 7.2 95 0.4 N 39 57 21 31 - - 0.0
29/09:30am 7.9 -0.1 7.5 97 0.2 N 39 48 21 26 - - 0.0
29/09:00am 8.0 -0.7 7.9 99 0.1 N 43 56 23 30 - - 0.0
29/08:35am 8.0 -0.7 7.9 99 0.1 N 43 61 23 33 - - 0.0
29/08:30am 8.0 -0.7 7.9 99 0.1 N 43 57 23 31 - - 0.0
29/08:00am 8.0 -0.3 7.7 98 0.2 N 41 54 22 29 - - 0.0
29/07:32am 8.0 -1.0 7.4 96 0.3 N 44 63 24 34 - - 0.0
29/07:31am 8.1 -0.8 7.5 96 0.3 N 44 63 24 34 - - 0.0
29/07:30am 8.1 -1.2 7.5 96 0.3 N 46 63 25 34 - - 0.0
29/07:28am 8.2 -1.1 7.6 96 0.3 N 46 63 25 34 - - 0.0
29/07:00am 7.9 0.2 7.0 94 0.5 N 37 44 20 24 - - 0.0
29/06:30am 7.8 -0.1 6.4 91 0.7 N 37 48 20 26 - - 0.0
29/06:00am 7.9 -0.8 5.9 87 1.0 N 41 50 22 27 - - 0.0
29/05:30am 7.9 -0.9 5.7 86 1.1 N 41 54 22 29 - - 0.0
29/05:00am 7.9 -1.9 5.2 83 1.3 N 46 61 25 33 - - 0.0
29/04:30am 8.1 -1.3 5.2 82 1.4 N 44 59 24 32 - - 0.0
29/04:00am 7.9 -1.4 5.0 82 1.4 N 43 56 23 30 - - 0.0
29/03:30am 7.9 -1.6 4.8 81 1.5 N 44 59 24 32 - - 0.0
29/03:00am 8.2 -1.7 4.8 79 1.7 N 46 57 25 31 - - 0.0
29/02:30am 8.2 -1.2 4.4 77 1.9 N 43 54 23 29 - - 0.0
29/02:00am 8.6 -0.8 4.4 75 2.1 N 43 56 23 30 - - 0.0
29/01:30am 8.4 -0.9 5.0 79 1.7 N 43 54 23 29 - - 0.0
29/01:00am 8.3 -0.6 4.9 79 1.7 N 41 48 22 26 - - 0.0
29/12:30am 8.3 0.1 4.7 78 1.8 N 37 46 20 25 - - 0.0
29/12:00am 8.4 -0.6 4.6 77 1.9 N 41 56 22 30 - - 0.0
 
Date/Time
EST
Temp
°C
App
Temp
°C
Dew
Point
Rel
Hum
%
Delta-T
°C
Wind Press
QNH
hPa
Press
MSL
hPa
Rain
since 9 am
mm
Dir
 
Spd
km/h
Gust
km/h
Spd
kts
Gust
kts
28/11:42pm 8.6 -0.8 4.6 76 2.0 N 43 61 23 33 - - 0.0
28/11:30pm 8.7 -0.8 4.7 76 2.0 N 44 57 24 31 - - 0.0
28/11:00pm 8.6 -2.0 5.0 78 1.8 N 50 61 27 33 - - 0.0
28/10:30pm 8.6 -1.6 5.4 80 1.6 N 48 65 26 35 - - 0.0
28/10:00pm 8.8 -1.7 5.4 79 1.7 N 50 65 27 35 - - 0.0
28/09:30pm 8.9 -0.3 5.6 80 1.7 N 43 56 23 30 - - 0.0
28/09:00pm 9.2 0.4 5.6 78 1.8 N 41 56 22 30 - - 0.0
28/08:30pm 9.2 0.4 5.6 78 1.8 N 41 52 22 28 - - 0.0
28/08:00pm 9.1 0.0 5.7 79 1.7 N 43 54 23 29 - - 0.0
28/07:30pm 9.3 -0.4 5.9 79 1.7 NNW 46 57 25 31 - - 0.0
28/07:00pm 9.2 -0.5 5.8 79 1.7 N 46 59 25 32 - - 0.0
28/06:30pm 9.1 -0.2 6.0 81 1.6 N 44 57 24 31 - - 0.0
28/06:00pm 8.9 -0.1 6.2 83 1.4 NNW 43 52 23 28 - - 0.0
28/05:30pm 8.9 0.6 6.2 83 1.4 N 39 54 21 29 - - 0.0
28/05:00pm 8.8 0.1 6.1 83 1.4 N 41 52 22 28 - - 0.0
28/04:30pm 8.7 0.4 6.3 85 1.2 N 39 50 21 27 - - 0.0
28/04:00pm 8.9 0.7 6.5 85 1.2 NNW 39 52 21 28 - - 0.0
28/03:30pm 8.9 1.1 6.5 85 1.2 N 37 46 20 25 - - 0.0
28/03:00pm 9.2 1.0 6.5 83 1.4 NNW 39 56 21 30 - - 0.0
28/02:30pm 10.0 2.2 6.7 80 1.7 NNW 37 56 20 30 - - 0.0
28/02:27pm 9.6 1.8 6.5 81 1.6 NNW 37 56 20 30 - - 0.0
28/02:00pm 10.1 1.1 6.6 79 1.8 NNW 43 56 23 30 - - 0.0
28/01:31pm 9.0 1.2 6.6 85 1.2 NNW 37 56 20 30 - - 0.0
28/01:30pm 8.8 0.6 6.4 85 1.2 NNW 39 56 21 30 - - 0.0
28/01:10pm 9.1 1.6 6.4 83 1.4 NNW 35 54 19 29 - - 0.0
28/01:00pm 8.8 0.6 6.4 85 1.2 NNW 39 52 21 28 - - 0.0
28/12:30pm 8.3 -0.4 5.9 85 1.2 NNW 41 54 22 29 - - 0.0
28/12:16pm 8.5 -0.2 6.1 85 1.2 NNW 41 59 22 32 - - 0.0
28/12:00pm 8.3 -1.0 6.1 86 1.1 NNW 44 59 24 32 - - 0.0
28/11:30am 7.6 -2.1 5.7 88 1.0 NNW 46 63 25 34 - - 0.0
28/11:00am 7.2 -2.5 5.7 90 0.8 NNW 46 59 25 32 - - 0.0
28/10:57am 7.1 -2.6 5.6 90 0.7 NNW 46 65 25 35 - - 0.0
28/10:38am 7.2 -2.6 5.5 89 0.8 NNW 46 65 25 35 - - 0.0
28/10:30am 7.2 -3.3 5.5 89 0.8 NNW 50 65 27 35 - - 0.0
28/10:12am 7.3 -3.2 5.6 89 0.9 NNW 50 70 27 38 - - 0.0
28/10:00am 7.2 -3.7 5.5 89 0.8 NNW 52 69 28 37 - - 0.0
28/09:44am 7.2 -4.5 5.5 89 0.8 NNW 56 74 30 40 - - 0.0
28/09:31am 7.1 -4.5 5.6 90 0.7 NNW 56 74 30 40 - - 0.0
28/09:30am 7.1 -4.7 5.6 90 0.7 NNW 57 74 31 40 - - 0.0
28/09:00am 7.1 -4.7 5.6 90 0.7 NNW 57 72 31 39 - - 0.0
28/08:31am 7.2 -4.5 5.5 89 0.8 NNW 56 74 30 40 - - 0.0
28/08:30am 7.1 -4.5 5.6 90 0.7 NNW 56 72 30 39 - - 0.0
28/08:17am 7.2 -4.6 5.5 89 0.8 NNW 57 76 31 41 - - 0.0
28/08:00am 7.2 -4.6 5.5 89 0.8 NNW 57 72 31 39 - - 0.0
28/07:30am 7.2 -4.5 5.5 89 0.8 NNW 56 72 30 39 - - 0.0
28/07:08am 7.1 -4.2 5.6 90 0.7 NNW 54 72 29 39 - - 0.0
28/07:07am 7.1 -4.2 5.6 90 0.7 NNW 54 72 29 39 - - 0.0
28/07:00am 7.0 -4.3 5.5 90 0.7 NNW 54 67 29 36 - - 0.0
28/06:30am 7.1 -4.2 5.4 89 0.8 NNW 54 76 29 41 - - 0.0
28/06:00am 7.2 -4.5 5.3 88 0.9 NNW 56 74 30 40 - - 0.0
28/05:31am 7.1 -4.8 5.3 88 0.9 NNW 57 76 31 41 - - 0.0
28/05:30am 7.1 -5.2 5.3 88 0.9 NNW 59 76 32 41 - - 0.0
28/05:00am 7.3 -5.0 5.1 86 1.1 NNW 59 83 32 45 - - 0.0
28/04:34am 7.2 -4.8 4.9 85 1.1 NNW 57 76 31 41 - - 0.0
28/04:30am 7.2 -4.6 4.9 85 1.1 NNW 56 72 30 39 - - 0.0
28/04:13am 7.1 -4.7 4.9 86 1.1 NNW 56 74 30 40 - - 0.0
28/04:00am 7.3 -4.7 5.0 85 1.1 NNW 57 74 31 40 - - 0.0
28/03:45am 7.4 -4.9 5.0 85 1.2 NNW 59 82 32 44 - - 0.0
28/03:30am 7.2 -5.1 5.0 86 1.1 NNW 59 76 32 41 - - 0.0
28/03:00am 7.5 -4.8 5.0 84 1.2 NNW 59 78 32 42 - - 0.0
28/02:31am 7.4 -4.6 5.0 85 1.2 NNW 57 76 31 41 - - 0.0
28/02:30am 7.5 -4.5 5.0 84 1.2 NNW 57 76 31 41 - - 0.0
28/02:00am 7.7 -5.8 5.0 83 1.3 NNW 65 87 35 47 - - 0.0
28/01:30am 7.6 -5.5 5.1 84 1.2 NNW 63 83 34 45 - - 0.0
28/01:00am 7.7 -5.4 5.0 83 1.3 NNW 63 85 34 46 - - 0.0
28/12:30am 7.8 -5.3 4.9 82 1.4 NNW 63 82 34 44 - - 0.0
28/12:00am 8.1 -5.4 5.0 81 1.5 NNW 65 91 35 49 - - 0.0
 
Date/Time
EST
Temp
°C
App
Temp
°C
Dew
Point
Rel
Hum
%
Delta-T
°C
Wind Press
QNH
hPa
Press
MSL
hPa
Rain
since 9 am
mm
Dir
 
Spd
km/h
Gust
km/h
Spd
kts
Gust
kts
27/11:30pm 8.2 -5.3 5.1 81 1.5 NNW 65 85 35 46 - - 0.0
27/11:00pm 8.1 -4.6 5.0 81 1.5 NNW 61 87 33 47 - - 0.0
27/10:30pm 8.1 -5.4 4.9 80 1.6 NNW 65 83 35 45 - - 0.0
27/10:00pm 8.1 -4.3 4.5 78 1.8 NNW 59 82 32 44 - - 0.0
27/09:31pm 8.0 -3.9 4.4 78 1.8 N 56 76 30 41 - - 0.0
27/09:30pm 8.0 -3.9 4.4 78 1.8 N 56 72 30 39 - - 0.0
27/09:00pm 7.9 -3.6 4.5 79 1.7 N 54 72 29 39 - - 0.0
27/08:30pm 7.6 -4.2 4.9 83 1.3 N 56 74 30 40 - - 0.0
27/08:29pm 7.5 -4.3 5.0 84 1.2 N 56 74 30 40 - - 0.0
27/08:00pm 7.4 -3.6 5.0 85 1.2 N 52 65 28 35 - - 0.0
27/07:30pm 7.5 -4.4 5.1 85 1.2 N 57 70 31 38 - - 0.0
27/07:02pm 7.4 -4.0 4.9 84 1.2 N 54 72 29 39 - - 0.0
27/07:00pm 7.4 -4.4 4.9 84 1.2 N 56 72 30 39 - - 0.0
27/06:30pm 7.3 -4.1 5.0 85 1.1 N 54 65 29 35 - - 0.0
27/06:00pm 7.2 -2.6 5.2 87 1.0 N 46 57 25 31 - - 0.0
27/05:37pm 7.3 -2.9 5.3 87 1.0 N 48 67 26 36 - - 0.0
27/05:36pm 7.3 -2.9 5.1 86 1.1 N 48 67 26 36 - - 0.0
27/05:30pm 7.4 -3.6 4.9 84 1.2 N 52 67 28 36 - - 0.0
27/05:00pm 7.5 -1.8 5.1 85 1.2 NNW 43 56 23 30 - - 0.0
27/04:33pm 7.8 -1.1 5.1 83 1.3 NNW 41 59 22 32 - - 0.0
27/04:32pm 7.9 -1.0 5.0 82 1.4 N 41 59 22 32 - - 0.0
27/04:30pm 8.0 -1.3 5.1 82 1.4 NNW 43 59 23 32 - - 0.0
27/04:14pm 8.2 -1.1 4.8 79 1.7 NNW 43 61 23 33 - - 0.0
27/04:13pm 8.3 -0.7 4.7 78 1.8 NNW 41 59 22 32 - - 0.0
27/04:00pm 8.7 -0.5 5.3 79 1.7 NNW 43 56 23 30 - - 0.0
27/03:30pm 8.9 -0.5 5.6 80 1.7 NNW 44 57 24 31 - - 0.0
27/03:00pm 8.3 -1.1 4.5 77 1.9 NNW 43 61 23 33 - - 0.0
27/02:30pm 8.4 -0.5 5.2 80 1.6 N 41 59 22 32 - - 0.0
27/02:09pm 8.5 -0.8 5.1 79 1.7 NNW 43 61 23 33 - - 0.0
27/02:00pm 8.6 -0.8 5.2 79 1.7 NNW 44 57 24 31 - - 0.0
27/01:30pm 9.2 -0.2 5.4 77 1.9 NNW 44 57 24 31 - - 0.0
27/01:00pm 8.5 -1.4 4.7 77 1.9 NNW 46 59 25 32 - - 0.0
27/12:30pm 8.8 -1.0 5.4 79 1.7 NNW 46 61 25 33 - - 0.0
27/12:09pm 8.7 -1.4 5.8 82 1.5 NNW 48 67 26 36 - - 0.0
27/12:08pm 8.0 -2.2 5.1 82 1.4 N 48 67 26 36 - - 0.0
27/12:00pm 8.6 -2.0 5.2 79 1.7 N 50 67 27 36 - - 0.0
27/11:30am 7.6 -3.4 5.1 84 1.2 NNW 52 69 28 37 - - 0.0
27/11:16am 7.9 -3.5 4.8 81 1.5 NNW 54 72 29 39 - - 0.0
27/11:00am 8.3 -2.7 5.2 81 1.5 NNW 52 69 28 37 - - 0.0
27/10:40am 7.7 -3.7 5.0 83 1.3 N 54 72 29 39 - - 0.0
27/10:30am 7.7 -3.2 5.7 87 1.0 N 52 67 28 36 - - 0.0
27/10:07am 7.0 -3.9 5.5 90 0.7 NNW 52 70 28 38 - - 0.0
27/10:00am 6.9 -3.6 5.5 91 0.7 N 50 65 27 35 - - 0.0
27/09:30am 6.4 -4.5 5.7 95 0.3 N 52 65 28 35 - - 0.0
27/09:00am 6.2 -5.0 6.1 99 0.1 N 54 69 29 37 - - 0.0
27/08:40am 5.7 -5.6 5.6 99 0.0 N 54 72 29 39 - - 0.0
27/08:30am 5.6 -5.7 5.5 99 0.0 N 54 70 29 38 - - 0.0
27/08:22am 5.5 -5.4 5.4 99 0.0 N 52 70 28 38 - - 0.0
27/08:00am 5.2 -5.4 4.9 98 0.1 N 50 59 27 32 - - 0.0
27/07:47am 5.2 -5.5 4.8 97 0.2 N 50 69 27 37 - - 0.0
27/07:30am 5.4 -5.0 4.4 93 0.5 NNW 48 59 26 32 - - 0.0
27/07:00am 5.6 -4.7 2.8 82 1.3 N 46 59 25 32 - - 0.0
27/06:30am 5.7 -4.8 1.6 75 1.8 N 46 57 25 31 - - 0.0
27/06:00am 6.0 -5.7 1.2 71 2.1 N 52 67 28 36 - - 0.0
27/05:34am 6.4 -6.3 0.9 68 2.5 N 57 76 31 41 - - 0.0
27/05:30am 6.3 -6.8 0.8 68 2.4 N 59 76 32 41 - - 0.0
27/05:29am 6.3 -6.4 0.8 68 2.4 N 57 76 31 41 - - 0.0
27/05:00am 6.8 -6.3 0.5 64 2.8 N 59 72 32 39 - - 0.0
27/04:56am 6.6 -6.1 0.5 65 2.7 N 57 76 31 41 - - 0.0
27/04:52am 6.6 -6.1 0.7 66 2.6 NNW 57 76 31 41 - - 0.0
27/04:30am 6.5 -6.2 0.6 66 2.6 N 57 70 31 38 - - 0.0
27/04:00am 6.7 -6.9 -0.1 62 3.0 N 61 80 33 43 - - 0.0
27/03:53am 6.8 -6.8 -0.4 60 3.1 N 61 80 33 43 - - 0.0
27/03:52am 6.9 -6.7 -0.3 60 3.1 N 61 80 33 43 - - 0.0
27/03:30am 7.2 -6.4 -0.3 59 3.3 N 61 76 33 41 - - 0.0
27/03:06am 7.2 -7.5 0.2 61 3.1 N 67 85 36 46 - - 0.0
27/03:00am 7.5 -7.1 0.5 61 3.1 N 67 78 36 42 - - 0.0
27/02:30am 7.5 -6.7 0.7 62 3.1 N 65 82 35 44 - - 0.0
27/02:03am 7.6 -6.3 0.1 59 3.3 N 63 83 34 45 - - 0.0
27/02:00am 7.7 -6.3 -0.3 57 3.5 N 63 80 34 43 - - 0.0
27/01:30am 7.8 -6.1 -2.5 48 4.3 N 61 78 33 42 - - 0.0
27/01:00am 7.7 -5.1 -4.4 42 4.8 N 54 65 29 35 - - 0.0
27/12:30am 7.9 -4.3 -2.7 47 4.4 N 52 59 28 32 - - 0.0
27/12:02am 8.2 -3.6 -2.7 46 4.5 NE 50 57 27 31 - - 0.0
27/12:00am 8.0 -3.5 -2.9 46 4.5 NE 48 56 26 30 - - 0.0
 
Date/Time
EST
Temp
°C
App
Temp
°C
Dew
Point
Rel
Hum
%
Delta-T
°C
Wind Press
QNH
hPa
Press
MSL
hPa
Rain
since 9 am
mm
Dir
 
Spd
km/h
Gust
km/h
Spd
kts
Gust
kts
26/11:30pm 7.9 -2.8 -3.0 46 4.5 NE 44 52 24 28 - - 0.0
26/11:00pm 8.1 -2.7 -3.4 44 4.7 NE 44 50 24 27 - - 0.0
26/10:46pm 8.8 -1.9 -2.5 45 4.8 NNE 44 57 24 31 - - 0.0
26/10:30pm 8.5 -2.5 -2.4 46 4.6 N 46 54 25 29 - - 0.0

Other Formats:

Comma delimited format used in spreadsheet applications
http://www.bom.gov.au/fwo/IDV60801/IDV60801.94906.axf

JavaScript Object Notation format (JSON) in row-major order
http://www.bom.gov.au/fwo/IDV60801/IDV60801.94906.json